createdAt,value
2017-12-21T00:00:46.885Z,1022.3
2017-12-21T00:01:49.385Z,1022.2
2017-12-21T00:02:52.162Z,1022.1
2017-12-21T00:03:54.658Z,1022.1
2017-12-21T00:04:57.159Z,1022.1
2017-12-21T00:05:59.943Z,1022.1
2017-12-21T00:07:02.440Z,1022.1
2017-12-21T00:08:04.942Z,1022.2
2017-12-21T00:09:07.450Z,1022.2
2017-12-21T00:10:09.932Z,1022.2
2017-12-21T00:11:12.423Z,1022.2
2017-12-21T00:12:14.928Z,1022.1
2017-12-21T00:13:17.422Z,1022.2
2017-12-21T00:14:19.912Z,1022.2
2017-12-21T00:15:22.405Z,1022.2
2017-12-21T00:16:25.179Z,1022.2
2017-12-21T00:17:27.683Z,1022.2
2017-12-21T00:18:30.184Z,1022.2
2017-12-21T00:19:32.659Z,1022.2
2017-12-21T00:20:35.163Z,1022.2
2017-12-21T00:21:37.664Z,1022.1
2017-12-21T00:22:40.158Z,1022.2
2017-12-21T00:23:42.657Z,1022.1
2017-12-21T00:24:45.133Z,1022.2
2017-12-21T00:25:47.629Z,1022.1
2017-12-21T00:26:50.138Z,1022.2
2017-12-21T00:27:52.633Z,1022.2
2017-12-21T00:28:55.123Z,1022.2
2017-12-21T00:29:57.616Z,1022.2
2017-12-21T00:31:00.107Z,1022.3
2017-12-21T00:32:02.610Z,1022.2
2017-12-21T00:33:05.103Z,1022.2
2017-12-21T00:34:07.871Z,1022.2
2017-12-21T00:35:10.372Z,1022.2
2017-12-21T00:36:12.880Z,1022.2
2017-12-21T00:37:15.374Z,1022.1
2017-12-21T00:38:17.858Z,1022.1
2017-12-21T00:39:20.362Z,1022.1
2017-12-21T00:40:22.851Z,1022.1
2017-12-21T00:41:25.345Z,1022.1
2017-12-21T00:42:27.846Z,1022.1
2017-12-21T00:43:30.614Z,1022.1
2017-12-21T00:44:33.106Z,1022
2017-12-21T00:45:35.614Z,1022.1
2017-12-21T00:46:38.110Z,1022
2017-12-21T00:47:40.606Z,1022
2017-12-21T00:48:43.095Z,1022
2017-12-21T00:49:45.579Z,1022
2017-12-21T00:50:48.098Z,1021.9
2017-12-21T00:51:50.591Z,1022
2017-12-21T00:52:53.080Z,1022
2017-12-21T00:53:55.862Z,1021.9
2017-12-21T00:54:58.637Z,1021.9
2017-12-21T00:56:01.426Z,1022
2017-12-21T00:57:04.212Z,1022
2017-12-21T00:58:06.691Z,1021.9
2017-12-21T00:59:09.184Z,1022
2017-12-21T01:00:11.688Z,1022
2017-12-21T01:01:14.478Z,1021.9
2017-12-21T01:02:16.970Z,1021.9
2017-12-21T01:03:19.463Z,1021.8
2017-12-21T01:04:22.263Z,1021.9
2017-12-21T01:05:25.059Z,1021.9
2017-12-21T01:06:27.550Z,1021.9
2017-12-21T01:07:30.055Z,1021.9
2017-12-21T01:08:32.537Z,1021.9
2017-12-21T01:09:35.033Z,1022
2017-12-21T01:10:37.532Z,1021.9
2017-12-21T01:11:40.036Z,1021.9
2017-12-21T01:12:42.527Z,1021.9
2017-12-21T01:13:45.024Z,1021.9
2017-12-21T01:14:47.513Z,1021.8
2017-12-21T01:15:50.010Z,1021.8
2017-12-21T01:16:52.506Z,1021.8
2017-12-21T01:17:55.293Z,1021.7
2017-12-21T01:18:57.773Z,1021.8
2017-12-21T01:20:00.271Z,1021.8
2017-12-21T01:21:02.767Z,1021.8
2017-12-21T01:22:05.268Z,1021.8
2017-12-21T01:23:07.758Z,1021.8
2017-12-21T01:24:10.245Z,1021.8
2017-12-21T01:25:12.733Z,1021.8
2017-12-21T01:26:15.232Z,1021.8
2017-12-21T01:27:17.724Z,1021.8
2017-12-21T01:28:20.218Z,1021.8
2017-12-21T01:29:22.710Z,1021.7
2017-12-21T01:30:25.211Z,1021.7
2017-12-21T01:31:27.703Z,1021.7
2017-12-21T01:32:30.208Z,1021.7
2017-12-21T01:33:32.695Z,1021.6
2017-12-21T01:34:35.196Z,1021.6
2017-12-21T01:35:37.689Z,1021.6
2017-12-21T01:36:40.181Z,1021.6
2017-12-21T01:37:42.670Z,1021.6
2017-12-21T01:38:45.453Z,1021.6
2017-12-21T01:39:48.242Z,1021.6
2017-12-21T01:40:50.744Z,1021.7
2017-12-21T01:41:53.233Z,1021.7
2017-12-21T01:42:55.725Z,1021.7
2017-12-21T01:43:58.228Z,1021.7
2017-12-21T01:45:00.716Z,1021.7
2017-12-21T01:46:03.519Z,1021.7
2017-12-21T01:47:06.010Z,1021.7
2017-12-21T01:48:08.502Z,1021.7
2017-12-21T01:49:10.998Z,1021.7
2017-12-21T01:50:13.497Z,1021.7
2017-12-21T01:51:15.992Z,1021.8
2017-12-21T01:52:18.488Z,1021.7
2017-12-21T01:53:21.272Z,1021.8
2017-12-21T01:54:23.759Z,1021.7
2017-12-21T01:55:26.263Z,1021.7
2017-12-21T01:56:28.750Z,1021.7
2017-12-21T01:57:31.251Z,1021.7
2017-12-21T01:58:33.740Z,1021.7
2017-12-21T01:59:36.228Z,1021.7
2017-12-21T02:00:38.729Z,1021.7
2017-12-21T02:01:41.220Z,1021.7
2017-12-21T02:02:43.998Z,1021.7
2017-12-21T02:03:46.788Z,1021.7
2017-12-21T02:04:49.271Z,1021.7
2017-12-21T02:05:51.767Z,1021.6
2017-12-21T02:06:54.255Z,1021.6
2017-12-21T02:07:56.740Z,1021.7
2017-12-21T02:08:59.248Z,1021.6
2017-12-21T02:10:01.735Z,1021.6
2017-12-21T02:11:04.233Z,1021.6
2017-12-21T02:12:06.731Z,1021.5
2017-12-21T02:13:09.229Z,1021.6
2017-12-21T02:14:11.718Z,1021.5
2017-12-21T02:15:14.219Z,1021.5
2017-12-21T02:16:16.704Z,1021.5
2017-12-21T02:17:19.203Z,1021.5
2017-12-21T02:18:21.706Z,1021.5
2017-12-21T02:19:24.203Z,1021.5
2017-12-21T02:20:26.692Z,1021.5
2017-12-21T02:21:29.501Z,1021.4
2017-12-21T02:22:31.983Z,1021.4
2017-12-21T02:23:34.492Z,1021.4
2017-12-21T02:24:36.984Z,1021.5
2017-12-21T02:25:39.475Z,1021.5
2017-12-21T02:26:42.262Z,1021.5
2017-12-21T02:27:44.758Z,1021.5
2017-12-21T02:28:47.248Z,1021.5
2017-12-21T02:29:49.755Z,1021.5
2017-12-21T02:30:52.225Z,1021.6
2017-12-21T02:31:54.722Z,1021.6
2017-12-21T02:32:57.226Z,1021.5
2017-12-21T02:33:59.727Z,1021.5
2017-12-21T02:35:02.218Z,1021.5
2017-12-21T02:36:05.000Z,1021.5
2017-12-21T02:37:07.497Z,1021.5
2017-12-21T02:38:09.991Z,1021.5
2017-12-21T02:39:12.478Z,1021.5
2017-12-21T02:40:15.279Z,1021.5
2017-12-21T02:41:17.757Z,1021.6
2017-12-21T02:42:20.260Z,1021.6
2017-12-21T02:43:22.753Z,1021.6
2017-12-21T02:44:25.244Z,1021.6
2017-12-21T02:45:27.743Z,1021.6
2017-12-21T02:46:30.243Z,1021.6
2017-12-21T02:47:32.728Z,1021.6
2017-12-21T02:48:35.582Z,1021.5
2017-12-21T02:49:38.081Z,1021.5
2017-12-21T02:50:40.576Z,1021.5
2017-12-21T02:51:43.081Z,1021.5
2017-12-21T02:52:45.864Z,1021.5
2017-12-21T02:53:48.643Z,1021.5
2017-12-21T02:54:51.147Z,1021.6
2017-12-21T02:55:53.636Z,1021.6
2017-12-21T02:56:56.144Z,1021.6
2017-12-21T02:57:58.928Z,1021.5
2017-12-21T02:59:01.423Z,1021.5
2017-12-21T03:00:04.202Z,1021.5
2017-12-21T03:01:06.696Z,1021.4
2017-12-21T03:02:09.184Z,1021.5
2017-12-21T03:03:11.671Z,1021.5
2017-12-21T03:04:14.327Z,1021.4
2017-12-21T03:05:16.825Z,1021.4
2017-12-21T03:06:19.296Z,1021.4
2017-12-21T03:07:21.790Z,1021.4
2017-12-21T03:08:24.283Z,1021.3
2017-12-21T03:09:26.779Z,1021.4
2017-12-21T03:10:29.275Z,1021.3
2017-12-21T03:11:32.362Z,1021.4
2017-12-21T03:12:34.854Z,1021.3
2017-12-21T03:13:37.364Z,1021.3
2017-12-21T03:14:39.862Z,1021.4
2017-12-21T03:15:42.356Z,1021.3
2017-12-21T03:16:44.850Z,1021.3
2017-12-21T03:17:47.346Z,1021.3
2017-12-21T03:18:49.849Z,1021.3
2017-12-21T03:19:52.341Z,1021.3
2017-12-21T03:20:54.823Z,1021.3
2017-12-21T03:21:57.615Z,1021.3
2017-12-21T03:23:00.118Z,1021.3
2017-12-21T03:24:02.905Z,1021.3
2017-12-21T03:25:05.396Z,1021.3
2017-12-21T03:26:08.183Z,1021.3
2017-12-21T03:27:10.673Z,1021.3
2017-12-21T03:28:13.189Z,1021.4
2017-12-21T03:29:15.971Z,1021.4
2017-12-21T03:30:18.455Z,1021.3
2017-12-21T03:31:21.255Z,1021.3
2017-12-21T03:32:24.043Z,1021.4
2017-12-21T03:33:26.549Z,1021.4
2017-12-21T03:34:29.327Z,1021.4
2017-12-21T03:35:31.820Z,1021.4
2017-12-21T03:36:34.314Z,1021.3
2017-12-21T03:37:36.799Z,1021.3
2017-12-21T03:38:39.295Z,1021.3
2017-12-21T03:39:41.807Z,1021.3
2017-12-21T03:40:44.294Z,1021.3
2017-12-21T03:41:46.782Z,1021.3
2017-12-21T03:42:49.288Z,1021.3
2017-12-21T03:43:51.783Z,1021.4
2017-12-21T03:44:54.276Z,1021.3
2017-12-21T03:45:56.774Z,1021.4
2017-12-21T03:46:59.250Z,1021.4
2017-12-21T03:48:01.756Z,1021.3
2017-12-21T03:49:04.252Z,1021.4
2017-12-21T03:50:06.748Z,1021.4
2017-12-21T03:51:09.245Z,1021.4
2017-12-21T03:52:11.730Z,1021.4
2017-12-21T03:53:14.225Z,1021.4
2017-12-21T03:54:16.739Z,1021.4
2017-12-21T03:55:19.227Z,1021.4
2017-12-21T03:56:21.717Z,1021.3
2017-12-21T03:57:24.219Z,1021.3
2017-12-21T03:58:26.712Z,1021.3
2017-12-21T03:59:29.789Z,1021.2
2017-12-21T04:00:32.285Z,1021.3
2017-12-21T04:01:34.768Z,1021.3
2017-12-21T04:02:37.263Z,1021.3
2017-12-21T04:03:39.768Z,1021.2
2017-12-21T04:04:42.836Z,1021.3
2017-12-21T04:05:45.327Z,1021.2
2017-12-21T04:06:47.821Z,1021.2
2017-12-21T04:07:50.319Z,1021.2
2017-12-21T04:08:52.808Z,1021.2
2017-12-21T04:09:55.615Z,1021.2
2017-12-21T04:10:58.100Z,1021.1
2017-12-21T04:12:00.595Z,1021.2
2017-12-21T04:13:03.091Z,1021.1
2017-12-21T04:14:05.594Z,1021.1
2017-12-21T04:15:08.085Z,1021.1
2017-12-21T04:16:10.580Z,1021.1
2017-12-21T04:17:13.082Z,1021.2
2017-12-21T04:18:15.596Z,1021.1
2017-12-21T04:19:18.370Z,1021.1
2017-12-21T04:20:20.856Z,1021.1
2017-12-21T04:21:23.358Z,1021.1
2017-12-21T04:22:25.854Z,1021.1
2017-12-21T04:23:28.349Z,1021.1
2017-12-21T04:24:31.146Z,1021.1
2017-12-21T04:25:33.618Z,1021
2017-12-21T04:26:36.127Z,1021.1
2017-12-21T04:27:38.611Z,1021.1
2017-12-21T04:28:41.110Z,1021.1
2017-12-21T04:29:43.593Z,1021
2017-12-21T04:30:46.092Z,1021
2017-12-21T04:31:48.882Z,1021.1
2017-12-21T04:32:51.659Z,1021
2017-12-21T04:33:54.156Z,1021
2017-12-21T04:34:56.654Z,1021
2017-12-21T04:35:59.441Z,1021
2017-12-21T04:37:01.942Z,1021
2017-12-21T04:38:04.427Z,1021
2017-12-21T04:39:06.926Z,1021
2017-12-21T04:40:09.418Z,1020.9
2017-12-21T04:41:11.913Z,1020.9
2017-12-21T04:42:14.716Z,1020.9
2017-12-21T04:43:17.207Z,1020.9
2017-12-21T04:44:19.708Z,1020.9
2017-12-21T04:45:22.503Z,1020.9
2017-12-21T04:46:24.989Z,1020.9
2017-12-21T04:47:27.493Z,1020.9
2017-12-21T04:48:29.993Z,1020.9
2017-12-21T04:49:32.490Z,1020.8
2017-12-21T04:50:34.982Z,1020.8
2017-12-21T04:51:37.773Z,1020.8
2017-12-21T04:52:40.260Z,1020.8
2017-12-21T04:53:42.776Z,1020.8
2017-12-21T04:54:45.260Z,1020.7
2017-12-21T04:55:47.762Z,1020.8
2017-12-21T04:56:50.250Z,1020.7
2017-12-21T04:57:52.741Z,1020.8
2017-12-21T04:58:55.237Z,1020.8
2017-12-21T04:59:57.738Z,1020.9
2017-12-21T05:01:00.218Z,1020.9
2017-12-21T05:02:03.028Z,1020.9
2017-12-21T05:03:05.536Z,1021
2017-12-21T05:04:08.022Z,1020.9
2017-12-21T05:05:10.510Z,1021
2017-12-21T05:06:13.011Z,1020.9
2017-12-21T05:07:15.513Z,1021
2017-12-21T05:08:18.004Z,1021
2017-12-21T05:09:20.792Z,1021
2017-12-21T05:10:23.265Z,1021
2017-12-21T05:11:25.762Z,1021
2017-12-21T05:12:28.299Z,1021.1
2017-12-21T05:13:30.763Z,1021.1
2017-12-21T05:14:33.262Z,1021.1
2017-12-21T05:15:35.757Z,1021
2017-12-21T05:16:38.238Z,1021
2017-12-21T05:17:41.068Z,1021
2017-12-21T05:18:43.561Z,1021
2017-12-21T05:19:46.050Z,1021
2017-12-21T05:20:48.548Z,1021.1
2017-12-21T05:21:51.045Z,1021.1
2017-12-21T05:22:53.546Z,1021.1
2017-12-21T05:23:56.644Z,1021.1
2017-12-21T05:24:59.128Z,1021.1
2017-12-21T05:26:01.617Z,1021.2
2017-12-21T05:27:04.122Z,1021.2
2017-12-21T05:28:06.614Z,1021.1
2017-12-21T05:29:09.098Z,1021.2
2017-12-21T05:30:11.597Z,1021.2
2017-12-21T05:31:14.385Z,1021.2
2017-12-21T05:32:16.878Z,1021.3
2017-12-21T05:33:19.380Z,1021.2
2017-12-21T05:34:21.878Z,1021.3
2017-12-21T05:35:24.357Z,1021.3
2017-12-21T05:36:26.876Z,1021.3
2017-12-21T05:37:29.374Z,1021.3
2017-12-21T05:38:31.865Z,1021.3
2017-12-21T05:39:34.648Z,1021.3
2017-12-21T05:40:37.137Z,1021.3
2017-12-21T05:41:39.633Z,1021.3
2017-12-21T05:42:42.427Z,1021.3
2017-12-21T05:43:44.911Z,1021.2
2017-12-21T05:44:47.406Z,1021.3
2017-12-21T05:45:49.909Z,1021.3
2017-12-21T05:46:52.404Z,1021.3
2017-12-21T05:47:54.906Z,1021.3
2017-12-21T05:48:57.398Z,1021.3
2017-12-21T05:49:59.888Z,1021.3
2017-12-21T05:51:02.399Z,1021.3
2017-12-21T05:52:04.891Z,1021.3
2017-12-21T05:53:07.381Z,1021.2
2017-12-21T05:54:09.872Z,1021.3
2017-12-21T05:55:12.666Z,1021.2
2017-12-21T05:56:15.163Z,1021.2
2017-12-21T05:57:17.677Z,1021.3
2017-12-21T05:58:20.149Z,1021.3
2017-12-21T05:59:22.642Z,1021.3
2017-12-21T06:00:25.151Z,1021.2
2017-12-21T06:01:27.645Z,1021.3
2017-12-21T06:02:30.139Z,1021.3
2017-12-21T06:03:32.630Z,1021.4
2017-12-21T06:04:35.128Z,1021.4
2017-12-21T06:05:37.628Z,1021.4
2017-12-21T06:06:40.122Z,1021.4
2017-12-21T06:07:42.635Z,1021.5
2017-12-21T06:08:45.128Z,1021.5
2017-12-21T06:09:47.909Z,1021.5
2017-12-21T06:10:50.706Z,1021.5
2017-12-21T06:11:53.196Z,1021.4
2017-12-21T06:12:55.694Z,1021.5
2017-12-21T06:13:58.187Z,1021.5
2017-12-21T06:15:00.678Z,1021.5
2017-12-21T06:16:03.180Z,1021.5
2017-12-21T06:17:05.678Z,1021.5
2017-12-21T06:18:08.171Z,1021.5
2017-12-21T06:19:10.665Z,1021.5
2017-12-21T06:20:13.159Z,1021.4
2017-12-21T06:21:15.650Z,1021.4
2017-12-21T06:22:18.156Z,1021.5
2017-12-21T06:23:20.642Z,1021.4
2017-12-21T06:24:23.142Z,1021.5
2017-12-21T06:25:25.646Z,1021.5
2017-12-21T06:26:28.145Z,1021.5
2017-12-21T06:27:30.938Z,1021.5
2017-12-21T06:28:33.431Z,1021.5
2017-12-21T06:29:35.924Z,1021.5
2017-12-21T06:30:38.423Z,1021.5
2017-12-21T06:31:40.917Z,1021.5
2017-12-21T06:32:43.420Z,1021.5
2017-12-21T06:33:45.897Z,1021.5
2017-12-21T06:34:48.402Z,1021.5
2017-12-21T06:35:50.915Z,1021.5
2017-12-21T06:36:53.404Z,1021.5
2017-12-21T06:37:55.906Z,1021.5
2017-12-21T06:38:58.398Z,1021.5
2017-12-21T06:40:00.896Z,1021.5
2017-12-21T06:41:03.399Z,1021.5
2017-12-21T06:42:05.886Z,1021.5
2017-12-21T06:43:08.658Z,1021.5
2017-12-21T06:44:11.156Z,1021.6
2017-12-21T06:45:13.664Z,1021.6
2017-12-21T06:46:16.450Z,1021.6
2017-12-21T06:47:18.955Z,1021.5
2017-12-21T06:48:21.732Z,1021.6
2017-12-21T06:49:24.228Z,1021.6
2017-12-21T06:50:26.733Z,1021.6
2017-12-21T06:51:29.227Z,1021.6
2017-12-21T06:52:31.725Z,1021.6
2017-12-21T06:53:34.239Z,1021.6
2017-12-21T06:54:36.725Z,1021.6
2017-12-21T06:55:39.522Z,1021.7
2017-12-21T06:56:42.022Z,1021.6
2017-12-21T06:57:44.498Z,1021.7
2017-12-21T06:58:47.004Z,1021.7
2017-12-21T06:59:49.504Z,1021.6
2017-12-21T07:00:52.008Z,1021.7
2017-12-21T07:01:54.502Z,1021.7
2017-12-21T07:02:57.287Z,1021.7
2017-12-21T07:03:59.787Z,1021.6
2017-12-21T07:05:02.283Z,1021.6
2017-12-21T07:06:04.791Z,1021.6
2017-12-21T07:07:07.316Z,1021.6
2017-12-21T07:08:09.793Z,1021.7
2017-12-21T07:09:12.294Z,1021.7
2017-12-21T07:10:14.790Z,1021.6
2017-12-21T07:11:17.284Z,1021.6
2017-12-21T07:12:19.789Z,1021.7
2017-12-21T07:13:22.290Z,1021.7
2017-12-21T07:14:24.837Z,1021.8
2017-12-21T07:15:27.290Z,1021.8
2017-12-21T07:16:29.783Z,1021.8
2017-12-21T07:17:32.283Z,1021.8
2017-12-21T07:18:35.067Z,1021.8
2017-12-21T07:19:37.562Z,1021.8
2017-12-21T07:20:40.059Z,1021.8
2017-12-21T07:21:42.561Z,1021.8
2017-12-21T07:22:45.040Z,1021.7
2017-12-21T07:23:47.551Z,1021.8
2017-12-21T07:24:50.043Z,1021.8
2017-12-21T07:25:52.540Z,1021.8
2017-12-21T07:26:55.038Z,1021.8
2017-12-21T07:27:57.538Z,1021.8
2017-12-21T07:29:00.036Z,1021.8
2017-12-21T07:30:02.530Z,1021.7
2017-12-21T07:31:05.101Z,1021.7
2017-12-21T07:32:07.543Z,1021.8
2017-12-21T07:33:10.330Z,1021.8
2017-12-21T07:34:12.824Z,1021.8
2017-12-21T07:35:15.311Z,1021.9
2017-12-21T07:36:17.810Z,1021.9
2017-12-21T07:37:20.305Z,1021.9
2017-12-21T07:38:22.791Z,1021.9
2017-12-21T07:39:25.293Z,1021.8
2017-12-21T07:40:27.806Z,1021.8
2017-12-21T07:41:30.366Z,1021.8
2017-12-21T07:42:32.862Z,1021.9
2017-12-21T07:43:35.361Z,1021.9
2017-12-21T07:44:38.149Z,1021.9
2017-12-21T07:45:40.654Z,1021.9
2017-12-21T07:46:43.162Z,1021.9
2017-12-21T07:47:45.654Z,1021.9
2017-12-21T07:48:48.155Z,1021.8
2017-12-21T07:49:50.669Z,1021.8
2017-12-21T07:50:53.166Z,1021.8
2017-12-21T07:51:55.662Z,1021.8
2017-12-21T07:52:58.166Z,1021.8
2017-12-21T07:54:00.666Z,1021.8
2017-12-21T07:55:03.165Z,1021.8
2017-12-21T07:56:05.667Z,1021.9
2017-12-21T07:57:08.435Z,1021.8
2017-12-21T07:58:10.947Z,1021.9
2017-12-21T07:59:13.447Z,1021.8
2017-12-21T08:00:16.233Z,1021.8
2017-12-21T08:01:18.734Z,1021.8
2017-12-21T08:02:21.244Z,1021.8
2017-12-21T08:03:24.035Z,1021.8
2017-12-21T08:04:26.523Z,1021.8
2017-12-21T08:05:29.017Z,1021.8
2017-12-21T08:06:31.530Z,1021.9
2017-12-21T08:07:34.033Z,1021.8
2017-12-21T08:08:36.537Z,1021.8
2017-12-21T08:09:39.034Z,1021.8
2017-12-21T08:10:42.139Z,1021.8
2017-12-21T08:11:44.657Z,1021.8
2017-12-21T08:12:47.169Z,1021.8
2017-12-21T08:13:49.661Z,1021.8
2017-12-21T08:14:52.464Z,1021.8
2017-12-21T08:15:54.947Z,1021.8
2017-12-21T08:16:57.447Z,1021.9
2017-12-21T08:17:59.950Z,1021.9
2017-12-21T08:19:02.449Z,1022
2017-12-21T08:20:04.951Z,1022
2017-12-21T08:21:08.048Z,1022.1
2017-12-21T08:22:10.533Z,1022.1
2017-12-21T08:23:13.371Z,1022.1
2017-12-21T08:24:15.862Z,1022.1
2017-12-21T08:25:18.358Z,1022.2
2017-12-21T08:26:21.147Z,1022.2
2017-12-21T08:27:23.649Z,1022.2
2017-12-21T08:28:26.426Z,1022.2
2017-12-21T08:29:28.917Z,1022.2
2017-12-21T08:30:31.427Z,1022.2
2017-12-21T08:31:33.922Z,1022.3
2017-12-21T08:32:36.418Z,1022.3
2017-12-21T08:33:38.919Z,1022.3
2017-12-21T08:34:41.418Z,1022.3
2017-12-21T08:35:43.905Z,1022.3
2017-12-21T08:36:46.415Z,1022.3
2017-12-21T08:37:48.910Z,1022.4
2017-12-21T08:38:52.085Z,1022.4
2017-12-21T08:39:54.850Z,1022.4
2017-12-21T08:40:57.353Z,1022.4
2017-12-21T08:41:59.849Z,1022.5
2017-12-21T08:43:02.350Z,1022.4
2017-12-21T08:44:04.842Z,1022.4
2017-12-21T08:45:07.638Z,1022.4
2017-12-21T08:46:10.409Z,1022.4
2017-12-21T08:47:12.912Z,1022.3
2017-12-21T08:48:15.398Z,1022.4
2017-12-21T08:49:18.198Z,1022.4
2017-12-21T08:50:20.689Z,1022.4
2017-12-21T08:51:23.184Z,1022.4
2017-12-21T08:52:25.679Z,1022.3
2017-12-21T08:53:28.171Z,1022.4
2017-12-21T08:54:30.676Z,1022.4
2017-12-21T08:55:33.472Z,1022.4
2017-12-21T08:56:35.951Z,1022.4
2017-12-21T08:57:38.448Z,1022.3
2017-12-21T08:58:40.950Z,1022.3
2017-12-21T08:59:43.445Z,1022.4
2017-12-21T09:00:45.930Z,1022.4
2017-12-21T09:01:48.444Z,1022.4
2017-12-21T09:02:50.940Z,1022.4
2017-12-21T09:03:53.709Z,1022.4
2017-12-21T09:04:56.212Z,1022.3
2017-12-21T09:05:58.709Z,1022.4
2017-12-21T09:07:01.203Z,1022.4
2017-12-21T09:08:03.996Z,1022.4
2017-12-21T09:09:06.553Z,1022.4
2017-12-21T09:10:09.054Z,1022.4
2017-12-21T09:11:11.853Z,1022.3
2017-12-21T09:12:14.350Z,1022.4
2017-12-21T09:13:16.836Z,1022.5
2017-12-21T09:14:19.336Z,1022.4
2017-12-21T09:15:21.829Z,1022.5
2017-12-21T09:16:24.335Z,1022.5
2017-12-21T09:17:26.835Z,1022.5
2017-12-21T09:18:29.324Z,1022.5
2017-12-21T09:19:31.821Z,1022.5
2017-12-21T09:20:34.329Z,1022.5
2017-12-21T09:21:36.823Z,1022.5
2017-12-21T09:22:39.317Z,1022.5
2017-12-21T09:23:41.817Z,1022.4
2017-12-21T09:24:44.311Z,1022.4
2017-12-21T09:25:46.805Z,1022.4
2017-12-21T09:26:49.302Z,1022.4
2017-12-21T09:27:52.079Z,1022.4
2017-12-21T09:28:54.589Z,1022.4
2017-12-21T09:29:57.081Z,1022.4
2017-12-21T09:30:59.577Z,1022.4
2017-12-21T09:32:02.084Z,1022.3
2017-12-21T09:33:04.871Z,1022.3
2017-12-21T09:34:07.362Z,1022.2
2017-12-21T09:35:09.878Z,1022.2
2017-12-21T09:36:12.368Z,1022.1
2017-12-21T09:37:14.879Z,1022.2
2017-12-21T09:38:17.661Z,1022.2
2017-12-21T09:39:20.163Z,1022.2
2017-12-21T09:40:22.661Z,1022.1
2017-12-21T09:41:25.156Z,1022.2
2017-12-21T09:42:27.942Z,1022.2
2017-12-21T09:43:30.438Z,1022.2
2017-12-21T09:44:33.215Z,1022.2
2017-12-21T09:45:36.016Z,1022.2
2017-12-21T09:46:38.533Z,1022.2
2017-12-21T09:47:41.024Z,1022.2
2017-12-21T09:48:43.847Z,1022.2
2017-12-21T09:49:46.349Z,1022.3
2017-12-21T09:50:48.849Z,1022.2
2017-12-21T09:51:51.356Z,1022.2
2017-12-21T09:52:53.865Z,1022.2
2017-12-21T09:53:56.640Z,1022.2
2017-12-21T09:54:59.149Z,1022.2
2017-12-21T09:56:01.649Z,1022.2
2017-12-21T09:57:04.148Z,1022.1
2017-12-21T09:58:06.643Z,1022.2
2017-12-21T09:59:09.156Z,1022.2
2017-12-21T10:00:11.659Z,1022.2
2017-12-21T10:01:14.145Z,1022.2
2017-12-21T10:02:16.647Z,1022.2
2017-12-21T10:03:19.157Z,1022.2
2017-12-21T10:04:21.655Z,1022.2
2017-12-21T10:05:24.443Z,1022.2
2017-12-21T10:06:26.939Z,1022.2
2017-12-21T10:07:29.433Z,1022.2
2017-12-21T10:08:31.950Z,1022.2
2017-12-21T10:09:34.446Z,1022.2
2017-12-21T10:10:37.223Z,1022.2
2017-12-21T10:11:39.724Z,1022.1
2017-12-21T10:12:42.233Z,1022.2
2017-12-21T10:13:44.732Z,1022.2
2017-12-21T10:14:47.805Z,1022.1
2017-12-21T10:15:50.307Z,1022.1
2017-12-21T10:16:52.815Z,1022.1
2017-12-21T10:17:55.679Z,1022.2
2017-12-21T10:18:58.174Z,1022.2
2017-12-21T10:20:00.670Z,1022.2
2017-12-21T10:21:03.174Z,1022.1
2017-12-21T10:22:05.672Z,1022.1
2017-12-21T10:23:09.083Z,1022
2017-12-21T10:24:11.543Z,1022
2017-12-21T10:25:14.045Z,1022
2017-12-21T10:26:16.553Z,1022.1
2017-12-21T10:27:19.344Z,1022.1
2017-12-21T10:28:21.851Z,1022.1
2017-12-21T10:29:24.346Z,1022.1
2017-12-21T10:30:26.864Z,1022.1
2017-12-21T10:31:29.366Z,1022
2017-12-21T10:32:31.858Z,1022.1
2017-12-21T10:33:34.354Z,1022
2017-12-21T10:34:36.905Z,1022
2017-12-21T10:35:39.651Z,1022
2017-12-21T10:36:42.156Z,1022
2017-12-21T10:37:44.647Z,1022.1
2017-12-21T10:38:47.160Z,1022.1
2017-12-21T10:39:49.667Z,1022.1
2017-12-21T10:40:52.177Z,1022.1
2017-12-21T10:41:54.660Z,1022.2
2017-12-21T10:42:57.175Z,1022.2
2017-12-21T10:43:59.673Z,1022.2
2017-12-21T10:45:02.171Z,1022.2
2017-12-21T10:46:04.692Z,1022.3
2017-12-21T10:47:07.188Z,1022.3
2017-12-21T10:48:10.010Z,1022.3
2017-12-21T10:49:12.509Z,1022.3
2017-12-21T10:50:15.014Z,1022.3
2017-12-21T10:51:17.513Z,1022.3
2017-12-21T10:52:20.057Z,1022.3
2017-12-21T10:53:22.541Z,1022.4
2017-12-21T10:54:25.044Z,1022.4
2017-12-21T10:55:27.554Z,1022.3
2017-12-21T10:56:30.046Z,1022.4
2017-12-21T10:57:32.546Z,1022.4
2017-12-21T10:58:35.074Z,1022.4
2017-12-21T10:59:37.562Z,1022.4
2017-12-21T11:00:40.066Z,1022.4
2017-12-21T11:01:42.848Z,1022.3
2017-12-21T11:02:45.673Z,1022.3
2017-12-21T11:03:48.169Z,1022.3
2017-12-21T11:04:50.673Z,1022.3
2017-12-21T11:05:53.172Z,1022.3
2017-12-21T11:06:55.963Z,1022.2
2017-12-21T11:07:58.471Z,1022.2
2017-12-21T11:09:00.980Z,1022.3
2017-12-21T11:10:04.088Z,1022.3
2017-12-21T11:11:06.562Z,1022.3
2017-12-21T11:12:09.056Z,1022.4
2017-12-21T11:13:11.842Z,1022.4
2017-12-21T11:14:14.344Z,1022.4
2017-12-21T11:15:16.848Z,1022.4
2017-12-21T11:16:19.341Z,1022.5
2017-12-21T11:17:21.859Z,1022.5
2017-12-21T11:18:24.356Z,1022.5
2017-12-21T11:19:27.128Z,1022.5
2017-12-21T11:20:29.940Z,1022.5
2017-12-21T11:21:32.436Z,1022.5
2017-12-21T11:22:34.939Z,1022.5
2017-12-21T11:23:37.437Z,1022.6
2017-12-21T11:24:39.928Z,1022.5
2017-12-21T11:25:42.425Z,1022.5
2017-12-21T11:26:44.937Z,1022.5
2017-12-21T11:27:47.718Z,1022.6
2017-12-21T11:28:50.223Z,1022.5
2017-12-21T11:29:52.724Z,1022.5
2017-12-21T11:30:55.227Z,1022.5
2017-12-21T11:31:58.014Z,1022.4
2017-12-21T11:33:00.826Z,1022.5
2017-12-21T11:34:03.305Z,1022.4
2017-12-21T11:35:05.822Z,1022.4
2017-12-21T11:36:08.311Z,1022.4
2017-12-21T11:37:10.814Z,1022.4
2017-12-21T11:38:13.317Z,1022.4
2017-12-21T11:39:16.150Z,1022.4
2017-12-21T11:40:18.654Z,1022.4
2017-12-21T11:41:21.162Z,1022.5
2017-12-21T11:42:23.652Z,1022.4
2017-12-21T11:43:26.221Z,1022.5
2017-12-21T11:44:28.657Z,1022.4
2017-12-21T11:45:31.445Z,1022.5
2017-12-21T11:46:33.947Z,1022.4
2017-12-21T11:47:36.454Z,1022.4
2017-12-21T11:48:39.060Z,1022.4
2017-12-21T11:49:41.575Z,1022.4
2017-12-21T11:50:44.056Z,1022.3
2017-12-21T11:51:46.566Z,1022.4
2017-12-21T11:52:49.356Z,1022.3
2017-12-21T11:53:51.855Z,1022.4
2017-12-21T11:54:54.352Z,1022.4
2017-12-21T11:55:56.859Z,1022.4
2017-12-21T11:56:59.349Z,1022.3
2017-12-21T11:58:02.142Z,1022.3
2017-12-21T11:59:05.222Z,1022.4
2017-12-21T12:00:07.740Z,1022.4
2017-12-21T12:01:10.236Z,1022.4
2017-12-21T12:02:12.731Z,1022.4
2017-12-21T12:03:15.232Z,1022.3
2017-12-21T12:04:17.731Z,1022.3
2017-12-21T12:05:20.239Z,1022.3
2017-12-21T12:06:22.739Z,1022.3
2017-12-21T12:07:25.229Z,1022.3
2017-12-21T12:08:27.721Z,1022.3
2017-12-21T12:09:30.221Z,1022.3
2017-12-21T12:10:32.716Z,1022.3
2017-12-21T12:11:35.213Z,1022.3
2017-12-21T12:12:37.993Z,1022.3
2017-12-21T12:13:40.488Z,1022.2
2017-12-21T12:14:43.001Z,1022.3
2017-12-21T12:15:45.496Z,1022.2
2017-12-21T12:16:47.997Z,1022.2
2017-12-21T12:17:50.499Z,1022.2
2017-12-21T12:18:53.005Z,1022.3
2017-12-21T12:19:55.799Z,1022.2
2017-12-21T12:20:58.596Z,1022.2
2017-12-21T12:22:01.078Z,1022.2
2017-12-21T12:23:03.573Z,1022.2
2017-12-21T12:24:06.077Z,1022.2
2017-12-21T12:25:08.571Z,1022.1
2017-12-21T12:26:11.355Z,1022.2
2017-12-21T12:27:13.851Z,1022.3
2017-12-21T12:28:16.346Z,1022.3
2017-12-21T12:29:18.845Z,1022.3
2017-12-21T12:30:21.335Z,1022.4
2017-12-21T12:31:23.846Z,1022.3
2017-12-21T12:32:26.352Z,1022.4
2017-12-21T12:33:29.122Z,1022.5
2017-12-21T12:34:31.670Z,1022.5
2017-12-21T12:35:34.420Z,1022.5
2017-12-21T12:36:37.210Z,1022.5
2017-12-21T12:37:39.711Z,1022.4
2017-12-21T12:38:42.199Z,1022.4
2017-12-21T12:39:44.696Z,1022.3
2017-12-21T12:40:47.221Z,1022.4
2017-12-21T12:41:49.708Z,1022.5
2017-12-21T12:42:52.204Z,1022.5
2017-12-21T12:43:54.700Z,1022.6
2017-12-21T12:44:57.194Z,1022.6
2017-12-21T12:45:59.993Z,1022.5
2017-12-21T12:47:02.490Z,1022.5
2017-12-21T12:48:04.977Z,1022.4
2017-12-21T12:49:07.489Z,1022.4
2017-12-21T12:50:09.987Z,1022.4
2017-12-21T12:51:12.484Z,1022.3
2017-12-21T12:52:14.974Z,1022.3
2017-12-21T12:53:17.469Z,1022.3
2017-12-21T12:54:19.963Z,1022.3
2017-12-21T12:55:22.486Z,1022.3
2017-12-21T12:56:25.270Z,1022.3
2017-12-21T12:57:27.748Z,1022.3
2017-12-21T12:58:30.254Z,1022.3
2017-12-21T12:59:32.744Z,1022.3
2017-12-21T13:00:35.244Z,1022.2
2017-12-21T13:01:37.747Z,1022.2
2017-12-21T13:02:40.236Z,1022.2
2017-12-21T13:03:42.731Z,1022.2